Time;durP1;ratioP1;P1;durP2;ratioP2;P2;SDS_P1;SDS_P2;PMS_P1;PMS_P2;Temp;Humidity;BMP_temperature;BMP_pressure;BME280_temperature;BME280_humidity;BME280_pressure;Samples;Min_cycle;Max_cycle;Signal;HPM_P1;HPM_P2
2023/12/13 04:59:52;;;;;;;9.65;7.72;;;;;;;8.67;99.58;99269.19;5605577;31;80215;-56
2023/12/13 05:02:54;;;;;;;10.27;8.52;;;;;;;8.67;99.58;99269.19;5583538;32;33358;-56
2023/12/13 05:05:57;;;;;;;12.05;9.95;;;;;;;8.46;100.00;99274.88;5583965;31;33641;-56
2023/12/13 05:08:59;;;;;;;12.32;10.18;;;;;;;8.39;100.00;99269.13;5570299;32;33144;-56
2023/12/13 05:12:02;;;;;;;10.18;9.05;;;;;;;8.54;100.00;99267.28;5564244;32;34439;-56
2023/12/13 05:15:05;;;;;;;10.68;9.50;;;;;;;8.80;100.00;99267.63;5563938;32;34364;-56
2023/12/13 05:18:09;;;;;;;9.00;7.75;;;;;;;8.86;100.00;99263.78;5563965;32;34253;-56
2023/12/13 05:21:11;;;;;;;9.32;7.25;;;;;;;8.68;100.00;99271.59;5564193;32;33901;-56
2023/12/13 05:24:14;;;;;;;8.63;6.95;;;;;;;8.63;100.00;99274.31;5564019;32;34279;-56
2023/12/13 05:27:17;;;;;;;8.93;7.68;;;;;;;8.53;100.00;99271.03;5563982;32;33546;-56
2023/12/13 05:30:23;;;;;;;8.02;6.80;;;;;;;8.40;100.00;99273.38;5563854;32;33182;-57
2023/12/13 05:33:26;;;;;;;8.05;6.95;;;;;;;8.45;100.00;99269.84;5564235;32;32097;-56
2023/12/13 05:36:29;;;;;;;8.95;6.68;;;;;;;8.26;100.00;99267.19;5563819;32;34357;-56
2023/12/13 05:39:32;;;;;;;7.78;6.15;;;;;;;8.22;100.00;99260.84;5563956;32;33574;-56
2023/12/13 05:42:34;;;;;;;7.87;6.37;;;;;;;8.28;100.00;99265.03;5563849;32;33646;-56
2023/12/13 05:45:37;;;;;;;6.75;6.05;;;;;;;8.25;100.00;99257.59;5564010;32;34294;-56
2023/12/13 05:48:39;;;;;;;8.05;6.87;;;;;;;8.53;100.00;99249.69;5563824;32;34353;-56
2023/12/13 05:51:41;;;;;;;7.20;6.12;;;;;;;8.97;100.00;99245.66;5563996;32;33554;-56
2023/12/13 05:54:44;;;;;;;9.27;7.15;;;;;;;8.89;100.00;99241.81;5563713;32;33713;-56
2023/12/13 05:57:46;;;;;;;7.70;6.47;;;;;;;8.77;100.00;99244.97;5563677;32;33549;-56
2023/12/13 06:00:48;;;;;;;8.30;6.20;;;;;;;8.79;100.00;99237.44;5561714;32;34245;-56
2023/12/13 06:03:51;;;;;;;6.95;6.12;;;;;;;8.56;100.00;99230.41;5562746;32;34266;-56
2023/12/13 06:06:53;;;;;;;7.65;6.22;;;;;;;8.81;100.00;99231.81;5562898;32;34303;-55
2023/12/13 06:09:56;;;;;;;6.35;5.35;;;;;;;8.51;100.00;99235.81;5556804;32;33679;-56
2023/12/13 06:12:58;;;;;;;5.37;4.60;;;;;;;8.43;100.00;99232.75;5550744;32;33585;-56
2023/12/13 06:16:01;;;;;;;6.43;5.55;;;;;;;8.26;100.00;99229.00;5563957;32;33830;-56
2023/12/13 06:19:03;;;;;;;6.87;5.43;;;;;;;8.29;100.00;99221.22;5563864;32;33540;-56
2023/12/13 06:22:10;;;;;;;8.68;6.25;;;;;;;8.49;100.00;99220.09;5560875;32;34364;-57
2023/12/13 06:25:13;;;;;;;6.47;5.60;;;;;;;8.63;100.00;99214.75;5556100;32;33594;-56
2023/12/13 06:28:15;;;;;;;7.57;4.78;;;;;;;8.56;100.00;99214.38;5569654;32;33581;-56
2023/12/13 06:31:18;;;;;;;5.12;4.28;;;;;;;8.39;100.00;99206.94;5565598;32;35118;-56
2023/12/13 06:34:20;;;;;;;6.00;4.87;;;;;;;8.18;100.00;99209.91;5551118;32;33594;-57
2023/12/13 06:37:23;;;;;;;5.95;4.70;;;;;;;8.22;100.00;99213.59;5551266;32;33736;-56
2023/12/13 06:40:25;;;;;;;6.93;4.97;;;;;;;8.05;100.00;99221.34;5557492;32;33609;-56
2023/12/13 06:43:27;;;;;;;7.22;5.28;;;;;;;8.49;100.00;99227.31;5558168;32;33661;-57
2023/12/13 06:46:30;;;;;;;5.55;4.40;;;;;;;8.70;100.00;99225.84;5561657;32;34260;-56
2023/12/13 06:49:34;;;;;;;5.18;4.12;;;;;;;8.41;100.00;99226.91;5549725;32;34304;-56
2023/12/13 06:52:38;;;;;;;6.90;5.12;;;;;;;8.21;100.00;99225.34;5555842;32;34319;-56
2023/12/13 06:55:41;;;;;;;7.22;5.22;;;;;;;8.48;100.00;99231.87;5551926;32;33608;-56
2023/12/13 06:58:46;;;;;;;4.62;3.80;;;;;;;8.44;100.00;99228.19;5551836;32;33655;-56
2023/12/13 07:01:52;;;;;;;5.97;4.95;;;;;;;8.54;100.00;99233.34;5555812;32;32887;-56
2023/12/13 07:04:55;;;;;;;5.82;4.60;;;;;;;8.40;100.00;99225.31;5564161;32;33676;-56
2023/12/13 07:07:58;;;;;;;4.75;3.92;;;;;;;8.49;100.00;99224.66;5556765;31;33655;-56
2023/12/13 07:11:03;;;;;;;6.20;3.87;;;;;;;8.70;100.00;99223.97;5560875;32;33899;-56
2023/12/13 07:14:05;;;;;;;5.25;4.75;;;;;;;8.52;100.00;99221.41;5558667;32;34182;-57
2023/12/13 07:17:10;;;;;;;4.65;4.03;;;;;;;8.65;100.00;99217.94;5564099;32;33618;-56
2023/12/13 07:20:13;;;;;;;4.37;3.97;;;;;;;8.55;100.00;99218.94;5563499;32;34252;-56
2023/12/13 07:23:17;;;;;;;5.18;3.90;;;;;;;8.80;100.00;99223.00;5557726;32;33613;-56
2023/12/13 07:26:27;;;;;;;4.78;3.85;;;;;;;8.50;100.00;99228.91;5556438;32;33529;-56
2023/12/13 07:29:33;;;;;;;5.72;4.87;;;;;;;8.41;100.00;99223.44;5568571;32;33909;-56
2023/12/13 07:32:38;;;;;;;;;;;;;;;8.80;100.00;99219.53;5568622;32;33107;-56
2023/12/13 07:35:47;;;;;;;4.93;3.95;;;;;;;8.69;100.00;99218.94;5565316;32;33846;-56
2023/12/13 07:38:50;;;;;;;4.40;4.00;;;;;;;8.62;100.00;99222.00;5559368;32;33570;-56
2023/12/13 07:41:54;;;;;;;3.92;3.45;;;;;;;8.76;100.00;99226.56;5553678;32;34394;-56
2023/12/13 07:44:57;;;;;;;4.62;3.70;;;;;;;8.56;100.00;99220.50;5565283;32;33781;-57
2023/12/13 07:48:00;;;;;;;4.28;3.78;;;;;;;8.41;100.00;99212.75;5560350;32;33951;-56
2023/12/13 07:51:23;;;;;;;5.40;4.57;;;;;;;8.65;100.00;99221.41;5559800;32;33168;-56
2023/12/13 07:54:25;;;;;;;6.80;4.70;;;;;;;8.91;100.00;99208.34;5565445;32;33568;-56
2023/12/13 07:57:28;;;;;;;4.80;3.92;;;;;;;8.85;100.00;99206.88;5554858;32;34350;-56
2023/12/13 08:00:30;;;;;;;5.00;3.87;;;;;;;8.92;100.00;99204.59;5563469;32;33528;-56
2023/12/13 08:03:33;;;;;;;5.65;4.40;;;;;;;8.55;99.39;99196.75;5551989;32;34068;-57
2023/12/13 08:06:35;;;;;;;6.22;4.20;;;;;;;8.66;100.00;99192.81;5557647;32;34311;-56
2023/12/13 08:09:38;;;;;;;5.30;4.57;;;;;;;8.59;100.00;99181.72;5559527;32;33664;-56
2023/12/13 08:12:42;;;;;;;5.78;4.75;;;;;;;8.42;100.00;99169.75;5555754;32;33638;-56
2023/12/13 08:15:45;;;;;;;8.10;5.30;;;;;;;8.36;100.00;99178.91;5559548;32;34271;-56
2023/12/13 08:18:48;;;;;;;6.55;5.60;;;;;;;8.31;100.00;99179.00;5555405;32;33672;-56
2023/12/13 08:21:51;;;;;;;6.97;5.87;;;;;;;8.90;100.00;99177.34;5548807;32;33743;-57
2023/12/13 08:24:54;;;;;;;9.10;6.30;;;;;;;8.64;100.00;99173.59;5548076;32;33638;-56
2023/12/13 08:27:56;;;;;;;8.32;5.85;;;;;;;8.81;100.00;99165.81;5556785;32;34551;-56
2023/12/13 08:30:59;;;;;;;7.22;5.93;;;;;;;8.57;100.00;99174.00;5550263;32;32477;-56
2023/12/13 08:34:19;;;;;;;6.00;5.37;;;;;;;8.53;100.00;99173.00;5566374;32;33200;-56
2023/12/13 08:37:23;;;;;;;7.25;5.93;;;;;;;8.68;100.00;99170.06;5558043;32;34452;-56
2023/12/13 08:40:25;;;;;;;8.32;6.20;;;;;;;8.61;100.00;99169.66;5565723;32;33540;-56
2023/12/13 08:43:27;;;;;;;8.15;5.75;;;;;;;8.64;100.00;99176.28;5564741;32;34298;-56
2023/12/13 08:46:30;;;;;;;7.57;5.75;;;;;;;8.49;100.00;99176.56;5560049;32;33515;-56
2023/12/13 08:49:33;;;;;;;6.43;5.72;;;;;;;8.56;100.00;99174.31;5559944;32;33602;-56
2023/12/13 08:52:35;;;;;;;6.90;5.93;;;;;;;8.73;100.00;99181.72;5560099;32;33556;-56
2023/12/13 08:55:38;;;;;;;9.27;5.97;;;;;;;8.37;100.00;99180.47;5559185;32;33537;-56
2023/12/13 08:58:41;;;;;;;8.77;5.53;;;;;;;8.42;100.00;99179.63;5556943;32;33845;-56
2023/12/13 09:01:43;;;;;;;9.35;5.53;;;;;;;8.47;100.00;99182.19;5556767;32;33645;-56
2023/12/13 09:04:46;;;;;;;9.90;5.47;;;;;;;8.30;100.00;99187.28;5558416;32;33713;-56
2023/12/13 09:07:48;;;;;;;5.93;5.32;;;;;;;8.45;100.00;99176.38;5557986;31;33574;-57
2023/12/13 09:10:51;;;;;;;6.82;5.50;;;;;;;8.49;100.00;99172.03;5553576;32;33644;-56
2023/12/13 09:13:53;;;;;;;6.57;5.60;;;;;;;8.70;100.00;99164.41;5548630;32;34236;-57
2023/12/13 09:16:56;;;;;;;5.62;4.15;;;;;;;8.69;100.00;99162.81;5563732;32;34293;-56
2023/12/13 09:19:58;;;;;;;5.53;4.30;;;;;;;8.62;100.00;99167.78;5554626;32;34200;-57
2023/12/13 09:23:01;;;;;;;4.75;4.07;;;;;;;8.44;100.00;99167.56;5557465;32;33619;-56
2023/12/13 09:26:05;;;;;;;4.18;3.65;;;;;;;8.46;100.00;99160.03;5547847;32;35217;-56
2023/12/13 09:29:08;;;;;;;4.75;4.07;;;;;;;8.38;100.00;99149.28;5549540;32;33609;-56
2023/12/13 09:32:11;;;;;;;5.90;4.40;;;;;;;8.66;100.00;99155.41;5562519;32;33671;-56
2023/12/13 09:35:14;;;;;;;8.75;4.12;;;;;;;8.77;100.00;99178.16;5555491;32;34393;-57
2023/12/13 09:38:17;;;;;;;5.72;3.90;;;;;;;8.56;100.00;99172.41;5559252;32;33585;-56
2023/12/13 09:41:27;;;;;;;5.45;3.80;;;;;;;8.50;100.00;99168.25;5560027;32;34337;-56
2023/12/13 09:44:32;;;;;;;11.70;3.90;;;;;;;8.77;100.00;99172.03;5560547;32;33711;-57
2023/12/13 09:47:35;;;;;;;8.13;3.97;;;;;;;8.72;100.00;99164.91;5554723;32;33631;-56
2023/12/13 09:50:41;;;;;;;4.80;4.03;;;;;;;8.83;100.00;99166.28;5563208;32;33658;-57
2023/12/13 09:53:46;;;;;;;4.90;4.03;;;;;;;8.74;100.00;99168.09;5558253;32;33680;-56
2023/12/13 09:56:49;;;;;;;5.43;4.05;;;;;;;8.55;98.36;99164.72;5559692;32;33745;-56
2023/12/13 09:59:52;;;;;;;5.18;4.05;;;;;;;8.51;100.00;99174.38;5565765;32;34223;-56
2023/12/13 10:02:54;;;;;;;5.55;3.97;;;;;;;8.34;99.32;99172.25;5564204;32;33729;-56
2023/12/13 10:05:59;;;;;;;6.93;4.00;;;;;;;8.09;100.00;99165.50;5564160;32;34448;-56
2023/12/13 10:09:03;;;;;;;6.40;4.57;;;;;;;8.15;100.00;99165.13;5561306;32;33730;-56
2023/12/13 10:12:09;;;;;;;6.47;4.20;;;;;;;8.44;100.00;99162.22;5563748;32;33711;-56
2023/12/13 10:15:12;;;;;;;10.48;4.40;;;;;;;8.61;100.00;99175.00;5560919;32;34343;-56
2023/12/13 10:18:16;;;;;;;4.78;4.12;;;;;;;8.45;100.00;99169.16;5563957;32;33750;-56
2023/12/13 10:21:18;;;;;;;5.40;4.35;;;;;;;8.54;100.00;99163.09;5554931;32;33153;-56
2023/12/13 10:24:21;;;;;;;6.60;4.65;;;;;;;8.71;100.00;99147.31;5558837;32;32426;-56
2023/12/13 10:27:24;;;;;;;9.95;5.12;;;;;;;8.59;100.00;99141.66;5557418;32;33347;-56
2023/12/13 10:30:26;;;;;;;12.13;5.47;;;;;;;8.52;100.00;99157.28;5557056;32;32317;-56
2023/12/13 10:33:29;;;;;;;8.18;5.65;;;;;;;8.59;100.00;99138.97;5554840;32;34943;-56
2023/12/13 10:36:33;;;;;;;6.85;5.25;;;;;;;8.59;100.00;99137.09;5559838;32;34380;-56
2023/12/13 10:39:36;;;;;;;7.65;5.50;;;;;;;8.57;100.00;99130.47;5559735;32;33584;-58
2023/12/13 10:42:44;;;;;;;7.82;5.28;;;;;;;8.46;100.00;99129.88;5559547;32;34398;-57
2023/12/13 10:45:54;;;;;;;6.70;5.32;;;;;;;8.52;100.00;99126.03;5562747;32;33734;-57
2023/12/13 10:48:59;;;;;;;9.38;5.43;;;;;;;8.53;100.00;99119.59;5564327;32;34392;-57
2023/12/13 10:52:04;;;;;;;10.75;6.15;;;;;;;8.50;100.00;99117.50;5556883;32;33750;-57
2023/12/13 10:55:10;;;;;;;8.05;6.47;;;;;;;8.36;99.42;99114.03;5565914;32;33696;-57
2023/12/13 10:58:12;;;;;;;8.38;6.45;;;;;;;8.38;98.58;99102.00;5560048;32;33685;-57
2023/12/13 11:01:16;;;;;;;9.45;6.75;;;;;;;8.31;99.81;99098.91;5561125;32;34464;-56
2023/12/13 11:04:18;;;;;;;7.82;6.28;;;;;;;8.34;100.00;99092.16;5555781;32;34304;-57
2023/12/13 11:07:21;;;;;;;8.93;7.10;;;;;;;8.32;100.00;99092.47;5561953;32;33550;-56
2023/12/13 11:10:24;;;;;;;10.35;7.18;;;;;;;8.33;98.92;99088.69;5559142;32;33619;-57
2023/12/13 11:13:27;;;;;;;9.60;7.50;;;;;;;8.43;100.00;99083.19;5564844;32;33744;-57
2023/12/13 11:16:38;;;;;;;11.98;6.68;;;;;;;8.42;100.00;99078.94;5563185;32;33802;-57
2023/12/13 11:19:41;;;;;;;10.70;7.62;;;;;;;8.39;99.26;99073.41;5564228;32;33617;-57
2023/12/13 11:22:48;;;;;;;11.07;7.50;;;;;;;8.44;100.00;99075.97;5559085;32;33719;-56
2023/12/13 11:25:51;;;;;;;12.18;8.27;;;;;;;8.46;100.00;99065.78;5558327;32;34435;-56
2023/12/13 11:28:56;;;;;;;11.85;8.63;;;;;;;8.76;100.00;99066.25;5562604;32;34065;-56
2023/12/13 11:32:04;;;;;;;11.57;8.35;;;;;;;8.86;100.00;99058.00;5561778;32;33343;-57
2023/12/13 11:35:17;;;;;;;10.57;9.05;;;;;;;8.97;100.00;99045.97;5561434;32;34504;-56
2023/12/13 11:38:20;;;;;;;11.90;8.85;;;;;;;9.08;100.00;99043.91;5561665;32;34311;-56
2023/12/13 11:41:22;;;;;;;10.85;8.27;;;;;;;9.09;100.00;99042.78;5560304;32;33802;-56
2023/12/13 11:44:33;;;;;;;11.35;8.43;;;;;;;8.86;100.00;99045.44;5559991;32;34437;-56
2023/12/13 11:47:36;;;;;;;9.27;7.50;;;;;;;8.72;100.00;99041.22;5555548;32;33697;-57
2023/12/13 11:50:40;;;;;;;10.27;8.68;;;;;;;8.66;100.00;99038.66;5549378;32;34449;-58
2023/12/13 11:53:42;;;;;;;11.30;8.30;;;;;;;9.04;100.00;99046.38;5552080;32;33105;-56
2023/12/13 11:56:45;;;;;;;10.45;8.27;;;;;;;8.99;100.00;99041.13;5561184;32;34319;-58
2023/12/13 11:59:50;;;;;;;13.15;7.95;;;;;;;9.03;100.00;99039.44;5561786;32;34049;-58
2023/12/13 12:02:54;;;;;;;9.38;7.95;;;;;;;8.89;100.00;99039.47;5561504;32;33304;-59
2023/12/13 12:06:16;;;;;;;8.95;7.85;;;;;;;8.54;100.00;99034.91;5558858;32;34061;-56
2023/12/13 12:09:23;;;;;;;11.98;7.62;;;;;;;8.50;96.88;99034.72;5556857;32;32266;-56
2023/12/13 12:12:26;;;;;;;7.97;6.65;;;;;;;8.42;97.42;99040.75;5566539;32;33674;-56
2023/12/13 12:15:30;;;;;;;8.30;7.28;;;;;;;8.33;97.65;99045.97;5565969;32;33804;-56
2023/12/13 12:18:33;;;;;;;9.25;6.87;;;;;;;8.28;97.83;99040.75;5561390;32;33192;-56
2023/12/13 12:21:36;;;;;;;10.30;7.25;;;;;;;8.40;98.51;99045.59;5563641;32;33781;-57
2023/12/13 12:24:39;;;;;;;8.82;7.40;;;;;;;8.51;98.52;99047.00;5556945;32;33631;-56
2023/12/13 12:27:46;;;;;;;10.18;8.20;;;;;;;8.39;99.17;99052.03;5559986;32;33465;-56
2023/12/13 12:30:49;;;;;;;10.38;7.72;;;;;;;8.33;100.00;99056.66;5549860;32;33703;-56
2023/12/13 12:33:55;;;;;;;11.77;8.18;;;;;;;8.50;100.00;99063.31;5552863;32;33689;-56
2023/12/13 12:36:58;;;;;;;13.13;8.80;;;;;;;8.48;98.63;99066.28;5559459;32;33634;-56
2023/12/13 12:40:00;;;;;;;12.50;9.00;;;;;;;8.22;96.95;99065.97;5558736;32;33314;-56
2023/12/13 12:43:03;;;;;;;11.60;8.50;;;;;;;8.23;100.00;99067.53;5554712;32;34969;-56
2023/12/13 12:46:05;;;;;;;12.20;9.52;;;;;;;8.25;100.00;99070.72;5563800;32;32413;-57
2023/12/13 12:49:08;;;;;;;12.07;9.18;;;;;;;8.25;100.00;99073.38;5556134;32;34181;-56
2023/12/13 12:52:14;;;;;;;12.32;9.50;;;;;;;8.24;100.00;99071.78;5552619;32;34358;-57
2023/12/13 12:55:16;;;;;;;11.75;9.23;;;;;;;8.25;100.00;99073.38;5550566;32;33908;-56
2023/12/13 12:58:21;;;;;;;13.70;8.95;;;;;;;8.42;100.00;99065.59;5558512;32;34022;-56
2023/12/13 13:01:23;;;;;;;14.57;9.40;;;;;;;8.52;100.00;99058.47;5557019;32;33646;-56
2023/12/13 13:04:26;;;;;;;11.10;9.38;;;;;;;8.49;100.00;99051.84;5562313;32;34667;-56
2023/12/13 13:07:29;;;;;;;11.93;9.65;;;;;;;8.51;100.00;99052.34;5562119;32;34410;-56
2023/12/13 13:10:32;;;;;;;11.45;9.07;;;;;;;8.46;100.00;99044.41;5554914;32;32360;-57
2023/12/13 13:13:35;;;;;;;12.15;9.02;;;;;;;8.72;100.00;99052.69;5563930;32;33782;-56
2023/12/13 13:16:37;;;;;;;11.48;8.55;;;;;;;8.89;100.00;99058.19;5566012;32;34262;-57
2023/12/13 13:19:40;;;;;;;14.05;9.77;;;;;;;8.70;100.00;99044.19;5567555;32;34309;-56
2023/12/13 13:22:44;;;;;;;9.80;8.68;;;;;;;8.68;100.00;99041.03;5559998;32;33704;-56
2023/12/13 13:25:46;;;;;;;11.60;9.20;;;;;;;8.75;100.00;99030.72;5564167;32;33672;-56
2023/12/13 13:28:49;;;;;;;15.63;9.32;;;;;;;8.84;100.00;99028.09;5566227;32;33641;-57
2023/12/13 13:31:51;;;;;;;12.95;9.10;;;;;;;8.59;100.00;99045.50;5564122;32;34345;-56
2023/12/13 13:34:55;;;;;;;11.18;8.82;;;;;;;8.72;100.00;99039.34;5565752;32;33762;-57
2023/12/13 13:37:58;;;;;;;12.02;9.02;;;;;;;8.77;100.00;99027.72;5564506;32;34422;-56
2023/12/13 13:41:00;;;;;;;11.88;8.80;;;;;;;8.76;100.00;99026.94;5565923;32;34438;-57
2023/12/13 13:44:03;;;;;;;12.25;8.73;;;;;;;8.61;100.00;99020.06;5565849;32;34410;-57
2023/12/13 13:47:06;;;;;;;11.55;8.45;;;;;;;8.60;100.00;99023.03;5563370;32;34302;-56
2023/12/13 13:50:09;;;;;;;14.82;8.80;;;;;;;8.56;100.00;99036.19;5564635;32;33713;-56
2023/12/13 13:53:12;;;;;;;13.52;8.93;;;;;;;8.55;100.00;99037.28;5565481;32;33634;-56
2023/12/13 13:56:15;;;;;;;14.65;10.10;;;;;;;8.47;100.00;99043.31;5569044;32;33789;-56
2023/12/13 13:59:23;;;;;;;13.98;10.75;;;;;;;8.45;100.00;99042.84;5568830;32;34464;-56
2023/12/13 14:02:32;;;;;;;11.90;9.60;;;;;;;8.46;100.00;99033.72;5562377;32;33528;-56
2023/12/13 14:05:36;;;;;;;11.57;9.10;;;;;;;8.55;100.00;99037.28;5566478;32;33636;-56
2023/12/13 14:08:40;;;;;;;13.85;10.82;;;;;;;8.54;100.00;99041.03;5568121;32;34222;-57
2023/12/13 14:11:46;;;;;;;14.43;10.95;;;;;;;8.67;100.00;99042.09;5566252;31;34314;-56
2023/12/13 14:14:48;;;;;;;17.55;12.02;;;;;;;8.79;100.00;99037.03;5560676;32;33806;-56
2023/12/13 14:17:50;;;;;;;17.62;12.10;;;;;;;8.70;100.00;99047.63;5562908;32;34357;-57
2023/12/13 14:20:53;;;;;;;17.00;12.95;;;;;;;8.80;100.00;99030.59;5568021;32;33919;-56
2023/12/13 14:23:55;;;;;;;18.15;12.68;;;;;;;8.87;100.00;99038.19;5566817;32;34386;-56
2023/12/13 14:26:57;;;;;;;22.67;13.20;;;;;;;8.69;100.00;99046.06;5567464;32;33372;-56
2023/12/13 14:30:00;;;;;;;22.95;15.98;;;;;;;8.75;100.00;99044.06;5557864;32;35071;-57
2023/12/13 14:33:03;;;;;;;16.80;12.85;;;;;;;8.69;100.00;99046.06;5567158;32;33243;-56
2023/12/13 14:36:06;;;;;;;18.52;12.57;;;;;;;8.65;100.00;99038.97;5556305;32;33777;-56
2023/12/13 14:39:08;;;;;;;18.77;14.32;;;;;;;8.83;100.00;99043.34;5567455;32;34508;-56
2023/12/13 14:42:11;;;;;;;18.05;13.45;;;;;;;8.79;100.00;99049.59;5562451;32;34341;-56
2023/12/13 14:45:14;;;;;;;18.33;14.40;;;;;;;8.75;100.00;99037.94;5559985;32;33730;-56
2023/12/13 14:48:16;;;;;;;16.40;13.32;;;;;;;8.86;100.00;99050.78;5564220;32;33627;-56
2023/12/13 14:51:19;;;;;;;16.77;13.10;;;;;;;8.88;100.00;99050.50;5559416;32;34320;-56
2023/12/13 14:54:23;;;;;;;16.30;12.90;;;;;;;8.88;100.00;99045.94;5558243;32;34301;-57
2023/12/13 14:57:25;;;;;;;16.92;13.02;;;;;;;8.85;100.00;99040.41;5567873;32;33920;-57
2023/12/13 15:00:28;;;;;;;18.92;14.02;;;;;;;8.89;100.00;99044.03;5567173;32;32263;-56
2023/12/13 15:03:30;;;;;;;18.35;14.80;;;;;;;8.98;100.00;99046.81;5561650;32;33763;-57
2023/12/13 15:06:35;;;;;;;19.58;15.15;;;;;;;8.92;100.00;99033.53;5559697;32;33652;-57
2023/12/13 15:09:37;;;;;;;21.98;17.25;;;;;;;9.02;100.00;99040.53;5564129;31;33655;-56
2023/12/13 15:12:40;;;;;;;14.82;11.12;;;;;;;8.88;100.00;99035.25;5567386;32;34197;-57
2023/12/13 15:15:42;;;;;;;16.10;11.90;;;;;;;8.88;100.00;99037.91;5562979;32;33642;-56
2023/12/13 15:18:44;;;;;;;14.95;11.25;;;;;;;8.96;100.00;99035.59;5567722;32;33862;-56
2023/12/13 15:21:47;;;;;;;22.25;19.15;;;;;;;8.95;100.00;99026.81;5560617;32;34508;-56
2023/12/13 15:24:50;;;;;;;20.52;17.70;;;;;;;8.87;100.00;99033.66;5559148;32;34329;-56
2023/12/13 15:27:52;;;;;;;20.25;15.65;;;;;;;8.97;100.00;99032.63;5568657;32;34399;-57
2023/12/13 15:30:54;;;;;;;16.80;14.25;;;;;;;8.92;100.00;99019.38;5568770;32;34328;-57
2023/12/13 15:33:56;;;;;;;18.73;15.57;;;;;;;8.88;100.00;99026.44;5563721;32;33096;-56
2023/12/13 15:36:59;;;;;;;20.45;14.68;;;;;;;9.03;100.00;99026.06;5568611;32;33825;-55
2023/12/13 15:40:02;;;;;;;17.65;14.38;;;;;;;9.01;100.00;99024.81;5569068;32;34287;-56
2023/12/13 15:43:05;;;;;;;21.33;16.23;;;;;;;9.04;100.00;99008.13;5566806;32;34440;-56
2023/12/13 15:46:07;;;;;;;18.80;15.23;;;;;;;9.11;100.00;99011.22;5568057;32;33698;-57
2023/12/13 15:49:10;;;;;;;28.12;17.52;;;;;;;9.08;100.00;99011.81;5568591;32;34325;-56
2023/12/13 15:52:13;;;;;;;19.30;16.10;;;;;;;8.97;100.00;99005.09;5563834;32;34325;-56
2023/12/13 15:55:16;;;;;;;22.30;16.33;;;;;;;8.77;100.00;99001.00;5565841;32;34404;-56
2023/12/13 15:58:18;;;;;;;19.37;15.35;;;;;;;8.72;100.00;98998.47;5566087;32;34250;-56
2023/12/13 16:01:21;;;;;;;26.77;21.12;;;;;;;8.76;100.00;99012.81;5566428;32;33682;-57
2023/12/13 16:04:23;;;;;;;27.83;20.62;;;;;;;8.68;100.00;99023.13;5566086;32;34335;-56
2023/12/13 16:07:26;;;;;;;27.58;19.62;;;;;;;8.64;100.00;99007.97;5566521;32;34429;-56
2023/12/13 16:10:28;;;;;;;25.12;18.33;;;;;;;8.61;100.00;99019.25;5566055;32;33660;-56
2023/12/13 16:13:31;;;;;;;22.05;15.90;;;;;;;8.61;100.00;99019.25;5568028;32;33762;-56
2023/12/13 16:16:33;;;;;;;20.40;16.50;;;;;;;8.64;100.00;99029.34;5566303;32;33626;-56
2023/12/13 16:19:35;;;;;;;25.08;17.37;;;;;;;8.62;100.00;99034.22;5567112;32;33774;-56
2023/12/13 16:22:38;;;;;;;24.20;17.02;;;;;;;8.61;100.00;99037.94;5559076;32;34337;-56
2023/12/13 16:25:40;;;;;;;25.33;16.92;;;;;;;8.62;97.55;99042.22;5565279;32;34338;-56
2023/12/13 16:28:43;;;;;;;25.00;16.95;;;;;;;8.51;98.76;99049.66;5566250;32;34402;-57
2023/12/13 16:31:45;;;;;;;23.92;15.82;;;;;;;8.51;100.00;99035.50;5568566;32;33340;-56
2023/12/13 16:34:49;;;;;;;29.67;17.75;;;;;;;8.85;100.00;99024.38;5566528;32;33371;-56
2023/12/13 16:37:51;;;;;;;27.48;16.40;;;;;;;8.68;100.00;99016.97;5568608;32;34473;-56
